sensor_id;sensor_type;location;lat;lon;timestamp;pressure;altitude;pressure_sealevel;temperature;humidity
75745;BME280;64359;51.366;-0.222;2023-02-05T00:00:35;103660.64;;;22.93;48.41
75745;BME280;64359;51.366;-0.222;2023-02-05T00:01:39;103657.90;;;22.93;47.94
75745;BME280;64359;51.366;-0.222;2023-02-05T00:02:44;103656.34;;;22.94;48.14
75745;BME280;64359;51.366;-0.222;2023-02-05T00:03:49;103656.34;;;22.94;48.16
75745;BME280;64359;51.366;-0.222;2023-02-05T00:04:53;103657.83;;;22.94;48.52
75745;BME280;64359;51.366;-0.222;2023-02-05T00:05:57;103662.01;;;22.94;47.79
75745;BME280;64359;51.366;-0.222;2023-02-05T00:07:02;103657.89;;;22.93;48.39
75745;BME280;64359;51.366;-0.222;2023-02-05T00:08:07;103659.48;;;22.94;48.47
75745;BME280;64359;51.366;-0.222;2023-02-05T00:09:11;103657.02;;;22.91;48.46
75745;BME280;64359;51.366;-0.222;2023-02-05T00:10:16;103663.56;;;22.95;48.35
75745;BME280;64359;51.366;-0.222;2023-02-05T00:11:20;103659.98;;;22.94;48.32
75745;BME280;64359;51.366;-0.222;2023-02-05T00:12:25;103661.80;;;22.94;48.35
75745;BME280;64359;51.366;-0.222;2023-02-05T00:13:29;103656.76;;;22.94;48.35
75745;BME280;64359;51.366;-0.222;2023-02-05T00:14:34;103661.09;;;22.94;48.26
75745;BME280;64359;51.366;-0.222;2023-02-05T00:15:41;103665.61;;;22.94;48.17
75745;BME280;64359;51.366;-0.222;2023-02-05T00:16:45;103668.11;;;22.95;48.26
75745;BME280;64359;51.366;-0.222;2023-02-05T00:17:50;103666.18;;;22.94;48.23
75745;BME280;64359;51.366;-0.222;2023-02-05T00:18:55;103665.07;;;22.92;48.26
75745;BME280;64359;51.366;-0.222;2023-02-05T00:19:59;103663.66;;;22.91;48.15
75745;BME280;64359;51.366;-0.222;2023-02-05T00:21:04;103664.21;;;22.91;48.22
75745;BME280;64359;51.366;-0.222;2023-02-05T00:22:09;103665.79;;;22.92;48.20
75745;BME280;64359;51.366;-0.222;2023-02-05T00:23:13;103663.88;;;22.93;48.13
75745;BME280;64359;51.366;-0.222;2023-02-05T00:24:17;103662.69;;;22.94;48.07
75745;BME280;64359;51.366;-0.222;2023-02-05T00:25:22;103660.86;;;22.94;48.12
75745;BME280;64359;51.366;-0.222;2023-02-05T00:26:26;103656.41;;;22.91;48.14
75745;BME280;64359;51.366;-0.222;2023-02-05T00:27:31;103661.91;;;22.95;48.31
75745;BME280;64359;51.366;-0.222;2023-02-05T00:28:36;103663.44;;;22.94;48.35
75745;BME280;64359;51.366;-0.222;2023-02-05T00:29:40;103664.89;;;22.94;47.91
75745;BME280;64359;51.366;-0.222;2023-02-05T00:30:44;103663.41;;;22.94;48.18
75745;BME280;64359;51.366;-0.222;2023-02-05T00:31:49;103661.66;;;22.94;48.25
75745;BME280;64359;51.366;-0.222;2023-02-05T00:32:54;103662.45;;;22.93;48.11
75745;BME280;64359;51.366;-0.222;2023-02-05T00:33:59;103661.63;;;22.94;48.20
75745;BME280;64359;51.366;-0.222;2023-02-05T00:35:03;103663.56;;;22.95;48.25
75745;BME280;64359;51.366;-0.222;2023-02-05T00:36:09;103654.58;;;22.96;47.82
75745;BME280;64359;51.366;-0.222;2023-02-05T00:37:14;103647.41;;;22.95;47.88
75745;BME280;64359;51.366;-0.222;2023-02-05T00:38:19;103643.84;;;22.97;48.06
75745;BME280;64359;51.366;-0.222;2023-02-05T00:39:23;103641.27;;;22.97;48.00
75745;BME280;64359;51.366;-0.222;2023-02-05T00:40:28;103643.82;;;22.97;48.03
75745;BME280;64359;51.366;-0.222;2023-02-05T00:41:32;103646.14;;;22.98;48.03
75745;BME280;64359;51.366;-0.222;2023-02-05T00:42:36;103649.95;;;22.95;47.93
75745;BME280;64359;51.366;-0.222;2023-02-05T00:43:41;103654.17;;;22.97;47.73
75745;BME280;64359;51.366;-0.222;2023-02-05T00:44:46;103652.61;;;22.98;47.88
75745;BME280;64359;51.366;-0.222;2023-02-05T00:45:50;103650.15;;;22.97;47.73
75745;BME280;64359;51.366;-0.222;2023-02-05T00:46:55;103653.30;;;22.99;47.55
75745;BME280;64359;51.366;-0.222;2023-02-05T00:47:59;103654.59;;;22.98;47.75
75745;BME280;64359;51.366;-0.222;2023-02-05T00:49:03;103654.17;;;22.95;47.90
75745;BME280;64359;51.366;-0.222;2023-02-05T00:50:08;103662.46;;;23.00;47.75
75745;BME280;64359;51.366;-0.222;2023-02-05T00:51:13;103659.72;;;23.00;47.68
75745;BME280;64359;51.366;-0.222;2023-02-05T00:52:17;103653.79;;;22.99;47.75
75745;BME280;64359;51.366;-0.222;2023-02-05T00:53:23;103642.33;;;22.93;47.74
75745;BME280;64359;51.366;-0.222;2023-02-05T00:54:28;103654.61;;;22.98;47.83
75745;BME280;64359;51.366;-0.222;2023-02-05T00:55:32;103652.95;;;22.98;47.68
75745;BME280;64359;51.366;-0.222;2023-02-05T00:56:36;103659.67;;;22.98;47.98
75745;BME280;64359;51.366;-0.222;2023-02-05T00:57:41;103663.80;;;22.99;47.36
75745;BME280;64359;51.366;-0.222;2023-02-05T00:58:45;103667.78;;;22.99;47.62
75745;BME280;64359;51.366;-0.222;2023-02-05T00:59:52;103666.02;;;23.00;47.28
75745;BME280;64359;51.366;-0.222;2023-02-05T01:00:57;103665.44;;;23.01;47.56
75745;BME280;64359;51.366;-0.222;2023-02-05T01:02:02;103666.88;;;23.01;47.65
75745;BME280;64359;51.366;-0.222;2023-02-05T01:03:06;103666.51;;;23.01;47.80
75745;BME280;64359;51.366;-0.222;2023-02-05T01:04:11;103668.68;;;23.01;47.65
75745;BME280;64359;51.366;-0.222;2023-02-05T01:05:15;103670.14;;;23.01;47.37
75745;BME280;64359;51.366;-0.222;2023-02-05T01:06:20;103671.29;;;23.02;47.21
75745;BME280;64359;51.366;-0.222;2023-02-05T01:07:24;103666.53;;;23.01;47.54
75745;BME280;64359;51.366;-0.222;2023-02-05T01:08:29;103664.08;;;23.02;47.16
75745;BME280;64359;51.366;-0.222;2023-02-05T01:09:33;103662.99;;;23.02;47.43
75745;BME280;64359;51.366;-0.222;2023-02-05T01:10:41;103665.05;;;23.03;47.38
75745;BME280;64359;51.366;-0.222;2023-02-05T01:11:45;103660.16;;;23.03;47.33
75745;BME280;64359;51.366;-0.222;2023-02-05T01:12:50;103659.19;;;23.04;46.92
75745;BME280;64359;51.366;-0.222;2023-02-05T01:13:54;103655.71;;;23.04;46.65
75745;BME280;64359;51.366;-0.222;2023-02-05T01:14:59;103650.11;;;23.04;47.40
75745;BME280;64359;51.366;-0.222;2023-02-05T01:16:04;103643.51;;;23.03;47.18
75745;BME280;64359;51.366;-0.222;2023-02-05T01:17:08;103645.10;;;23.03;46.86
75745;BME280;64359;51.366;-0.222;2023-02-05T01:18:13;103646.91;;;23.03;46.79
75745;BME280;64359;51.366;-0.222;2023-02-05T01:19:17;103647.85;;;23.03;47.10
75745;BME280;64359;51.366;-0.222;2023-02-05T01:20:22;103645.32;;;23.05;46.84
75745;BME280;64359;51.366;-0.222;2023-02-05T01:21:26;103645.23;;;23.06;46.63
75745;BME280;64359;51.366;-0.222;2023-02-05T01:22:31;103640.89;;;23.06;46.99
75745;BME280;64359;51.366;-0.222;2023-02-05T01:23:35;103644.73;;;23.05;47.33
75745;BME280;64359;51.366;-0.222;2023-02-05T01:24:40;103644.52;;;23.06;47.12
75745;BME280;64359;51.366;-0.222;2023-02-05T01:25:44;103647.27;;;23.05;47.23
75745;BME280;64359;51.366;-0.222;2023-02-05T01:26:49;103650.48;;;23.06;46.91
75745;BME280;64359;51.366;-0.222;2023-02-05T01:27:55;103656.21;;;23.07;46.95
75745;BME280;64359;51.366;-0.222;2023-02-05T01:29:00;103659.81;;;23.07;47.40
75745;BME280;64359;51.366;-0.222;2023-02-05T01:30:05;103660.83;;;23.06;47.31
75745;BME280;64359;51.366;-0.222;2023-02-05T01:31:10;103657.28;;;23.05;46.88
75745;BME280;64359;51.366;-0.222;2023-02-05T01:32:14;103660.20;;;23.05;47.19
75745;BME280;64359;51.366;-0.222;2023-02-05T01:33:19;103662.42;;;23.04;47.30
75745;BME280;64359;51.366;-0.222;2023-02-05T01:34:24;103670.46;;;23.03;47.16
75745;BME280;64359;51.366;-0.222;2023-02-05T01:35:28;103669.52;;;23.04;47.53
75745;BME280;64359;51.366;-0.222;2023-02-05T01:36:33;103669.15;;;23.04;47.29
75745;BME280;64359;51.366;-0.222;2023-02-05T01:37:37;103673.20;;;23.05;46.79
75745;BME280;64359;51.366;-0.222;2023-02-05T01:38:41;103673.32;;;23.06;46.78
75745;BME280;64359;51.366;-0.222;2023-02-05T01:39:46;103669.52;;;23.06;47.34
75745;BME280;64359;51.366;-0.222;2023-02-05T01:40:50;103665.48;;;23.06;46.97
75745;BME280;64359;51.366;-0.222;2023-02-05T01:41:55;103663.62;;;23.07;47.32
75745;BME280;64359;51.366;-0.222;2023-02-05T01:42:59;103665.62;;;23.07;47.18
75745;BME280;64359;51.366;-0.222;2023-02-05T01:44:09;103664.13;;;23.07;47.25
75745;BME280;64359;51.366;-0.222;2023-02-05T01:45:43;103664.70;;;23.07;46.93
75745;BME280;64359;51.366;-0.222;2023-02-05T01:46:53;103665.91;;;23.02;46.99
75745;BME280;64359;51.366;-0.222;2023-02-05T01:48:00;103665.20;;;23.01;47.41
75745;BME280;64359;51.366;-0.222;2023-02-05T01:49:05;103660.10;;;23.02;47.82
75745;BME280;64359;51.366;-0.222;2023-02-05T01:50:11;103655.92;;;23.02;47.74
75745;BME280;64359;51.366;-0.222;2023-02-05T01:51:15;103656.13;;;23.03;47.61
75745;BME280;64359;51.366;-0.222;2023-02-05T01:52:20;103661.09;;;23.05;47.60
75745;BME280;64359;51.366;-0.222;2023-02-05T01:53:28;103665.88;;;23.06;47.86
75745;BME280;64359;51.366;-0.222;2023-02-05T01:54:35;103665.80;;;23.07;47.80
75745;BME280;64359;51.366;-0.222;2023-02-05T01:55:46;103662.96;;;23.08;47.54
75745;BME280;64359;51.366;-0.222;2023-02-05T01:56:54;103659.84;;;23.04;47.81
75745;BME280;64359;51.366;-0.222;2023-02-05T01:58:00;103669.39;;;23.09;47.72
75745;BME280;64359;51.366;-0.222;2023-02-05T01:59:08;103672.05;;;23.10;47.72
75745;BME280;64359;51.366;-0.222;2023-02-05T02:00:13;103671.36;;;23.09;47.44
75745;BME280;64359;51.366;-0.222;2023-02-05T02:01:18;103675.66;;;23.10;47.48
75745;BME280;64359;51.366;-0.222;2023-02-05T02:02:22;103684.23;;;23.09;47.63
75745;BME280;64359;51.366;-0.222;2023-02-05T02:03:29;103687.94;;;23.09;47.74
75745;BME280;64359;51.366;-0.222;2023-02-05T02:04:37;103692.84;;;23.06;47.48
75745;BME280;64359;51.366;-0.222;2023-02-05T02:05:42;103695.64;;;23.06;47.69
75745;BME280;64359;51.366;-0.222;2023-02-05T02:06:46;103697.81;;;23.06;47.87
75745;BME280;64359;51.366;-0.222;2023-02-05T02:07:50;103695.86;;;23.05;47.84
75745;BME280;64359;51.366;-0.222;2023-02-05T02:08:55;103698.39;;;23.05;47.66
75745;BME280;64359;51.366;-0.222;2023-02-05T02:10:00;103695.95;;;23.06;47.60
75745;BME280;64359;51.366;-0.222;2023-02-05T02:11:07;103697.39;;;23.06;47.61
75745;BME280;64359;51.366;-0.222;2023-02-05T02:12:15;103699.31;;;23.07;47.35
75745;BME280;64359;51.366;-0.222;2023-02-05T02:13:22;103699.69;;;23.07;47.30
75745;BME280;64359;51.366;-0.222;2023-02-05T02:14:31;103697.31;;;23.07;46.20
75745;BME280;64359;51.366;-0.222;2023-02-05T02:15:37;103700.34;;;23.08;46.81
75745;BME280;64359;51.366;-0.222;2023-02-05T02:16:43;103702.73;;;23.07;47.02
75745;BME280;64359;51.366;-0.222;2023-02-05T02:17:50;103709.71;;;23.08;46.42
75745;BME280;64359;51.366;-0.222;2023-02-05T02:18:56;103713.98;;;23.07;46.82
75745;BME280;64359;51.366;-0.222;2023-02-05T02:20:03;103713.77;;;23.08;46.62
75745;BME280;64359;51.366;-0.222;2023-02-05T02:21:33;103719.46;;;23.07;47.31
75745;BME280;64359;51.366;-0.222;2023-02-05T02:22:59;103719.40;;;23.05;46.97
75745;BME280;64359;51.366;-0.222;2023-02-05T02:24:20;103720.45;;;23.04;47.37
75745;BME280;64359;51.366;-0.222;2023-02-05T02:25:42;103718.73;;;23.03;46.96
75745;BME280;64359;51.366;-0.222;2023-02-05T02:27:04;103716.51;;;23.01;47.00
75745;BME280;64359;51.366;-0.222;2023-02-05T02:28:16;103717.58;;;22.99;46.90
75745;BME280;64359;51.366;-0.222;2023-02-05T02:29:32;103722.52;;;22.99;47.08
75745;BME280;64359;51.366;-0.222;2023-02-05T02:30:41;103726.79;;;22.98;46.61
75745;BME280;64359;51.366;-0.222;2023-02-05T02:31:53;103725.88;;;22.98;47.11
75745;BME280;64359;51.366;-0.222;2023-02-05T02:33:05;103727.10;;;22.96;47.01
75745;BME280;64359;51.366;-0.222;2023-02-05T02:34:13;103724.14;;;22.94;47.08
75745;BME280;64359;51.366;-0.222;2023-02-05T02:35:24;103731.63;;;22.94;46.64
75745;BME280;64359;51.366;-0.222;2023-02-05T02:36:34;103727.20;;;22.92;46.57
75745;BME280;64359;51.366;-0.222;2023-02-05T02:37:41;103732.38;;;22.91;47.29
75745;BME280;64359;51.366;-0.222;2023-02-05T02:38:47;103734.10;;;22.88;47.06
75745;BME280;64359;51.366;-0.222;2023-02-05T02:39:58;103735.25;;;22.85;47.13
75745;BME280;64359;51.366;-0.222;2023-02-05T02:41:07;103728.46;;;22.82;47.43
75745;BME280;64359;51.366;-0.222;2023-02-05T02:42:16;103723.78;;;22.79;47.74
75745;BME280;64359;51.366;-0.222;2023-02-05T02:43:26;103720.33;;;22.77;47.81
75745;BME280;64359;51.366;-0.222;2023-02-05T02:44:38;103717.03;;;22.76;47.86
75745;BME280;64359;51.366;-0.222;2023-02-05T02:45:47;103718.02;;;22.75;48.12
75745;BME280;64359;51.366;-0.222;2023-02-05T02:46:54;103716.40;;;22.72;47.95
75745;BME280;64359;51.366;-0.222;2023-02-05T02:48:00;103720.42;;;22.72;48.14
75745;BME280;64359;51.366;-0.222;2023-02-05T02:49:10;103713.71;;;22.69;48.47
75745;BME280;64359;51.366;-0.222;2023-02-05T02:50:17;103711.63;;;22.68;48.30
75745;BME280;64359;51.366;-0.222;2023-02-05T02:51:25;103706.71;;;22.66;48.47
75745;BME280;64359;51.366;-0.222;2023-02-05T02:52:35;103710.05;;;22.65;48.32
75745;BME280;64359;51.366;-0.222;2023-02-05T02:53:44;103713.05;;;22.64;48.02
75745;BME280;64359;51.366;-0.222;2023-02-05T02:54:52;103713.91;;;22.63;48.41
75745;BME280;64359;51.366;-0.222;2023-02-05T02:55:59;103712.94;;;22.61;48.42
75745;BME280;64359;51.366;-0.222;2023-02-05T02:57:06;103715.20;;;22.60;48.41
75745;BME280;64359;51.366;-0.222;2023-02-05T02:58:19;103717.27;;;22.59;48.42
75745;BME280;64359;51.366;-0.222;2023-02-05T02:59:27;103719.79;;;22.57;48.35
75745;BME280;64359;51.366;-0.222;2023-02-05T03:00:34;103724.20;;;22.57;48.37
75745;BME280;64359;51.366;-0.222;2023-02-05T03:01:43;103721.84;;;22.55;48.38
75745;BME280;64359;51.366;-0.222;2023-02-05T03:02:51;103723.45;;;22.53;48.30
75745;BME280;64359;51.366;-0.222;2023-02-05T03:04:00;103723.27;;;22.51;48.53
75745;BME280;64359;51.366;-0.222;2023-02-05T03:05:08;103720.05;;;22.50;48.60
75745;BME280;64359;51.366;-0.222;2023-02-05T03:06:14;103713.67;;;22.44;48.47
75745;BME280;64359;51.366;-0.222;2023-02-05T03:07:23;103716.34;;;22.47;48.44
75745;BME280;64359;51.366;-0.222;2023-02-05T03:08:32;103720.39;;;22.46;48.36
75745;BME280;64359;51.366;-0.222;2023-02-05T03:09:42;103727.38;;;22.45;48.31
75745;BME280;64359;51.366;-0.222;2023-02-05T03:10:47;103733.88;;;22.43;48.44
75745;BME280;64359;51.366;-0.222;2023-02-05T03:11:54;103733.05;;;22.40;48.45
75745;BME280;64359;51.366;-0.222;2023-02-05T03:12:58;103734.14;;;22.38;48.58
75745;BME280;64359;51.366;-0.222;2023-02-05T03:14:02;103733.90;;;22.36;48.59
75745;BME280;64359;51.366;-0.222;2023-02-05T03:15:09;103735.36;;;22.32;48.64
75745;BME280;64359;51.366;-0.222;2023-02-05T03:16:15;103747.69;;;22.33;48.70
75745;BME280;64359;51.366;-0.222;2023-02-05T03:17:21;103751.45;;;22.32;48.67
75745;BME280;64359;51.366;-0.222;2023-02-05T03:18:26;103757.17;;;22.31;48.61
75745;BME280;64359;51.366;-0.222;2023-02-05T03:19:31;103761.88;;;22.29;48.79
75745;BME280;64359;51.366;-0.222;2023-02-05T03:20:40;103771.19;;;22.28;48.66
75745;BME280;64359;51.366;-0.222;2023-02-05T03:21:49;103775.50;;;22.26;48.71
75745;BME280;64359;51.366;-0.222;2023-02-05T03:22:57;103782.72;;;22.24;48.70
75745;BME280;64359;51.366;-0.222;2023-02-05T03:24:01;103779.13;;;22.19;48.81
75745;BME280;64359;51.366;-0.222;2023-02-05T03:25:07;103786.36;;;22.21;48.84
75745;BME280;64359;51.366;-0.222;2023-02-05T03:26:26;103786.55;;;22.19;48.85
75745;BME280;64359;51.366;-0.222;2023-02-05T03:27:31;103790.18;;;22.17;48.84
75745;BME280;64359;51.366;-0.222;2023-02-05T03:28:35;103792.82;;;22.15;48.88
75745;BME280;64359;51.366;-0.222;2023-02-05T03:29:40;103791.91;;;22.13;48.95
75745;BME280;64359;51.366;-0.222;2023-02-05T03:30:54;103798.40;;;22.11;49.01
75745;BME280;64359;51.366;-0.222;2023-02-05T03:32:09;103803.03;;;22.05;48.98
75745;BME280;64359;51.366;-0.222;2023-02-05T03:33:29;103821.16;;;22.07;48.97
75745;BME280;64359;51.366;-0.222;2023-02-05T03:34:46;103827.31;;;22.05;48.94
75745;BME280;64359;51.366;-0.222;2023-02-05T03:35:57;103831.08;;;22.02;48.99
75745;BME280;64359;51.366;-0.222;2023-02-05T03:37:10;103833.02;;;22.01;49.05
75745;BME280;64359;51.366;-0.222;2023-02-05T03:38:31;103832.98;;;21.99;49.02
75745;BME280;64359;51.366;-0.222;2023-02-05T03:39:48;103833.95;;;21.96;49.19
75745;BME280;64359;51.366;-0.222;2023-02-05T03:41:00;103828.15;;;21.94;49.28
75745;BME280;64359;51.366;-0.222;2023-02-05T03:42:15;103836.55;;;21.93;49.12
75745;BME280;64359;51.366;-0.222;2023-02-05T03:43:33;103838.74;;;21.90;49.22
75745;BME280;64359;51.366;-0.222;2023-02-05T03:44:57;103843.40;;;21.89;49.22
75745;BME280;64359;51.366;-0.222;2023-02-05T03:46:10;103850.64;;;21.86;49.26
75745;BME280;64359;51.366;-0.222;2023-02-05T03:47:29;103851.48;;;21.80;49.23
75745;BME280;64359;51.366;-0.222;2023-02-05T03:48:41;103859.16;;;21.82;49.38
75745;BME280;64359;51.366;-0.222;2023-02-05T03:49:53;103853.27;;;21.81;49.30
75745;BME280;64359;51.366;-0.222;2023-02-05T03:51:16;103853.19;;;21.79;49.38
75745;BME280;64359;51.366;-0.222;2023-02-05T03:52:26;103857.33;;;21.77;49.46
75745;BME280;64359;51.366;-0.222;2023-02-05T03:53:36;103865.54;;;21.76;49.35
75745;BME280;64359;51.366;-0.222;2023-02-05T03:54:45;103868.91;;;21.75;49.41
75745;BME280;64359;51.366;-0.222;2023-02-05T03:55:58;103871.57;;;21.73;49.31
75745;BME280;64359;51.366;-0.222;2023-02-05T03:57:07;103873.11;;;21.72;49.51
75745;BME280;64359;51.366;-0.222;2023-02-05T03:58:16;103875.00;;;21.71;49.50
75745;BME280;64359;51.366;-0.222;2023-02-05T03:59:23;103875.05;;;21.66;49.47
75745;BME280;64359;51.366;-0.222;2023-02-05T04:00:29;103880.48;;;21.68;49.52
75745;BME280;64359;51.366;-0.222;2023-02-05T04:01:34;103887.20;;;21.68;49.41
75745;BME280;64359;51.366;-0.222;2023-02-05T04:02:39;103888.39;;;21.66;49.42
75745;BME280;64359;51.366;-0.222;2023-02-05T04:03:43;103891.02;;;21.65;49.51
75745;BME280;64359;51.366;-0.222;2023-02-05T04:04:48;103897.06;;;21.64;49.53
75745;BME280;64359;51.366;-0.222;2023-02-05T04:05:52;103905.30;;;21.63;49.43
75745;BME280;64359;51.366;-0.222;2023-02-05T04:06:58;103912.23;;;21.62;49.57
75745;BME280;64359;51.366;-0.222;2023-02-05T04:08:02;103906.09;;;21.57;49.53
75745;BME280;64359;51.366;-0.222;2023-02-05T04:09:08;103912.91;;;21.60;49.45
75745;BME280;64359;51.366;-0.222;2023-02-05T04:10:13;103916.63;;;21.59;49.64
75745;BME280;64359;51.366;-0.222;2023-02-05T04:11:18;103920.33;;;21.58;49.52
75745;BME280;64359;51.366;-0.222;2023-02-05T04:12:22;103918.03;;;21.58;49.54
75745;BME280;64359;51.366;-0.222;2023-02-05T04:13:27;103916.43;;;21.57;49.58
75745;BME280;64359;51.366;-0.222;2023-02-05T04:14:31;103912.95;;;21.55;49.52
75745;BME280;64359;51.366;-0.222;2023-02-05T04:15:35;103917.69;;;21.55;49.59
75745;BME280;64359;51.366;-0.222;2023-02-05T04:16:40;103919.19;;;21.54;49.63
75745;BME280;64359;51.366;-0.222;2023-02-05T04:17:44;103916.04;;;21.53;49.72
75745;BME280;64359;51.366;-0.222;2023-02-05T04:18:48;103915.66;;;21.50;49.91
75745;BME280;64359;51.366;-0.222;2023-02-05T04:19:53;103909.46;;;21.49;49.87
75745;BME280;64359;51.366;-0.222;2023-02-05T04:20:57;103909.27;;;21.47;49.90
75745;BME280;64359;51.366;-0.222;2023-02-05T04:22:02;103915.62;;;21.46;50.25
75745;BME280;64359;51.366;-0.222;2023-02-05T04:23:06;103909.27;;;21.44;50.02
75745;BME280;64359;51.366;-0.222;2023-02-05T04:24:11;103916.86;;;21.44;50.34
75745;BME280;64359;51.366;-0.222;2023-02-05T04:25:15;103925.63;;;21.43;50.66
75745;BME280;64359;51.366;-0.222;2023-02-05T04:26:20;103928.80;;;21.42;50.45
75745;BME280;64359;51.366;-0.222;2023-02-05T04:27:24;103930.77;;;21.42;50.71
75745;BME280;64359;51.366;-0.222;2023-02-05T04:28:28;103925.79;;;21.41;50.65
75745;BME280;64359;51.366;-0.222;2023-02-05T04:29:33;103930.98;;;21.41;50.71
75745;BME280;64359;51.366;-0.222;2023-02-05T04:30:38;103931.83;;;21.42;50.41
75745;BME280;64359;51.366;-0.222;2023-02-05T04:31:42;103935.67;;;21.44;50.25
75745;BME280;64359;51.366;-0.222;2023-02-05T04:32:47;103933.79;;;21.44;50.64
75745;BME280;64359;51.366;-0.222;2023-02-05T04:33:51;103940.89;;;21.47;50.49
75745;BME280;64359;51.366;-0.222;2023-02-05T04:34:55;103946.84;;;21.47;50.49
75745;BME280;64359;51.366;-0.222;2023-02-05T04:36:00;103948.86;;;21.49;50.26
75745;BME280;64359;51.366;-0.222;2023-02-05T04:37:04;103952.48;;;21.51;50.48
75745;BME280;64359;51.366;-0.222;2023-02-05T04:38:08;103956.96;;;21.55;49.98
75745;BME280;64359;51.366;-0.222;2023-02-05T04:39:13;103961.80;;;21.57;50.28
75745;BME280;64359;51.366;-0.222;2023-02-05T04:40:18;103960.55;;;21.60;50.08
75745;BME280;64359;51.366;-0.222;2023-02-05T04:41:22;103955.24;;;21.62;49.99
75745;BME280;64359;51.366;-0.222;2023-02-05T04:42:26;103953.04;;;21.65;49.82
75745;BME280;64359;51.366;-0.222;2023-02-05T04:43:31;103953.06;;;21.67;49.93
75745;BME280;64359;51.366;-0.222;2023-02-05T04:44:35;103957.91;;;21.70;49.46
75745;BME280;64359;51.366;-0.222;2023-02-05T04:45:39;103961.69;;;21.73;49.34
75745;BME280;64359;51.366;-0.222;2023-02-05T04:46:44;103962.79;;;21.75;49.65
75745;BME280;64359;51.366;-0.222;2023-02-05T04:47:48;103963.19;;;21.77;49.18
75745;BME280;64359;51.366;-0.222;2023-02-05T04:48:52;103965.98;;;21.78;49.53
75745;BME280;64359;51.366;-0.222;2023-02-05T04:49:57;103971.48;;;21.82;48.81
75745;BME280;64359;51.366;-0.222;2023-02-05T04:51:06;103970.55;;;21.85;48.94
75745;BME280;64359;51.366;-0.222;2023-02-05T04:52:09;103976.45;;;21.88;48.77
75745;BME280;64359;51.366;-0.222;2023-02-05T04:53:14;103981.16;;;21.88;49.14
75745;BME280;64359;51.366;-0.222;2023-02-05T04:54:18;103985.21;;;21.90;48.97
75745;BME280;64359;51.366;-0.222;2023-02-05T04:55:22;103988.17;;;21.91;49.27
75745;BME280;64359;51.366;-0.222;2023-02-05T04:56:27;103988.33;;;21.91;48.67
75745;BME280;64359;51.366;-0.222;2023-02-05T04:57:31;103990.44;;;21.94;48.42
75745;BME280;64359;51.366;-0.222;2023-02-05T04:58:36;103995.08;;;21.97;48.85
75745;BME280;64359;51.366;-0.222;2023-02-05T04:59:41;103991.93;;;22.01;48.58
75745;BME280;64359;51.366;-0.222;2023-02-05T05:00:45;103992.55;;;22.05;48.58
75745;BME280;64359;51.366;-0.222;2023-02-05T05:01:50;103991.60;;;22.08;48.36
75745;BME280;64359;51.366;-0.222;2023-02-05T05:02:54;103992.27;;;22.11;48.78
75745;BME280;64359;51.366;-0.222;2023-02-05T05:03:59;103993.36;;;22.13;48.45
75745;BME280;64359;51.366;-0.222;2023-02-05T05:05:04;103999.04;;;22.15;48.07
75745;BME280;64359;51.366;-0.222;2023-02-05T05:06:09;104001.10;;;22.19;48.24
75745;BME280;64359;51.366;-0.222;2023-02-05T05:07:14;104008.67;;;22.21;48.40
75745;BME280;64359;51.366;-0.222;2023-02-05T05:08:18;104002.16;;;22.23;48.24
75745;BME280;64359;51.366;-0.222;2023-02-05T05:09:23;103998.56;;;22.25;48.27
75745;BME280;64359;51.366;-0.222;2023-02-05T05:10:27;104002.63;;;22.29;48.22
75745;BME280;64359;51.366;-0.222;2023-02-05T05:11:32;104001.52;;;22.30;48.43
75745;BME280;64359;51.366;-0.222;2023-02-05T05:12:36;104002.39;;;22.32;48.03
75745;BME280;64359;51.366;-0.222;2023-02-05T05:13:41;104002.69;;;22.35;48.08
75745;BME280;64359;51.366;-0.222;2023-02-05T05:14:46;104005.99;;;22.37;48.15
75745;BME280;64359;51.366;-0.222;2023-02-05T05:15:54;104010.71;;;22.39;47.75
75745;BME280;64359;51.366;-0.222;2023-02-05T05:16:59;104009.63;;;22.42;47.58
75745;BME280;64359;51.366;-0.222;2023-02-05T05:18:03;104008.45;;;22.43;47.64
75745;BME280;64359;51.366;-0.222;2023-02-05T05:19:08;104009.91;;;22.45;47.65
75745;BME280;64359;51.366;-0.222;2023-02-05T05:20:12;104008.67;;;22.47;47.40
75745;BME280;64359;51.366;-0.222;2023-02-05T05:21:17;104011.30;;;22.48;47.56
75745;BME280;64359;51.366;-0.222;2023-02-05T05:22:21;104015.80;;;22.51;47.34
75745;BME280;64359;51.366;-0.222;2023-02-05T05:23:25;104014.96;;;22.52;47.30
75745;BME280;64359;51.366;-0.222;2023-02-05T05:24:31;104019.98;;;22.55;47.18
75745;BME280;64359;51.366;-0.222;2023-02-05T05:25:41;104017.83;;;22.55;47.38
75745;BME280;64359;51.366;-0.222;2023-02-05T05:26:46;104013.04;;;22.56;47.40
75745;BME280;64359;51.366;-0.222;2023-02-05T05:27:50;104016.25;;;22.56;47.33
75745;BME280;64359;51.366;-0.222;2023-02-05T05:28:56;104011.90;;;22.56;47.35
75745;BME280;64359;51.366;-0.222;2023-02-05T05:30:00;104011.23;;;22.58;47.28
75745;BME280;64359;51.366;-0.222;2023-02-05T05:31:09;104013.11;;;22.59;46.99
75745;BME280;64359;51.366;-0.222;2023-02-05T05:32:13;104013.14;;;22.61;47.00
75745;BME280;64359;51.366;-0.222;2023-02-05T05:33:18;104013.21;;;22.62;47.14
75745;BME280;64359;51.366;-0.222;2023-02-05T05:34:22;104013.06;;;22.64;47.06
75745;BME280;64359;51.366;-0.222;2023-02-05T05:35:26;104013.20;;;22.64;47.06
75745;BME280;64359;51.366;-0.222;2023-02-05T05:36:31;104015.85;;;22.66;46.80
75745;BME280;64359;51.366;-0.222;2023-02-05T05:37:35;104016.67;;;22.67;46.95
75745;BME280;64359;51.366;-0.222;2023-02-05T05:38:40;104015.48;;;22.68;47.10
75745;BME280;64359;51.366;-0.222;2023-02-05T05:39:44;104017.14;;;22.70;46.46
75745;BME280;64359;51.366;-0.222;2023-02-05T05:41:06;104014.80;;;22.73;46.49
75745;BME280;64359;51.366;-0.222;2023-02-05T05:42:28;104009.48;;;22.74;46.43
75745;BME280;64359;51.366;-0.222;2023-02-05T05:43:52;104006.92;;;22.74;46.41
75745;BME280;64359;51.366;-0.222;2023-02-05T05:44:56;104007.06;;;22.74;46.43